createdAt,value
2018-02-25T00:00:37.090Z,102087.54
2018-02-25T00:03:05.702Z,102084.82
2018-02-25T00:05:34.086Z,102092.73
2018-02-25T00:08:02.520Z,102094.63
2018-02-25T00:10:30.935Z,102093.70
2018-02-25T00:12:59.335Z,102092.81
2018-02-25T00:15:27.735Z,102097.78
2018-02-25T00:17:56.887Z,102095.14
2018-02-25T00:20:25.267Z,102097.62
2018-02-25T00:22:53.669Z,102104.72
2018-02-25T00:25:22.076Z,102103.77
2018-02-25T00:27:51.237Z,102115.33
2018-02-25T00:30:19.634Z,102118.09
2018-02-25T00:32:48.011Z,102112.52
2018-02-25T00:35:16.568Z,102122.55
2018-02-25T00:37:44.975Z,102118.48
2018-02-25T00:40:14.119Z,102117.44
2018-02-25T00:42:42.562Z,102117.61
2018-02-25T00:45:11.728Z,102126.73
2018-02-25T00:47:40.128Z,102120.71
2018-02-25T00:50:08.659Z,102138.35
2018-02-25T00:52:37.066Z,102134.76
2018-02-25T00:55:05.467Z,102146.32
2018-02-25T00:57:33.896Z,102145.46
2018-02-25T01:00:02.282Z,102141.27
2018-02-25T01:02:30.659Z,102149.91
2018-02-25T01:04:59.107Z,102153.66
2018-02-25T01:07:28.344Z,102146.56
2018-02-25T01:09:56.739Z,102147.62
2018-02-25T01:12:25.254Z,102150.65
2018-02-25T01:14:54.214Z,102150.36
2018-02-25T01:17:22.625Z,102149.72
2018-02-25T01:19:51.073Z,102154.12
2018-02-25T01:22:19.443Z,102145.24
2018-02-25T01:24:47.876Z,102147.94
2018-02-25T01:27:17.025Z,102149.41
2018-02-25T01:29:45.524Z,102149.45
2018-02-25T01:32:13.918Z,102153.48
2018-02-25T01:34:42.299Z,102152.50
2018-02-25T01:37:10.700Z,102150.95
2018-02-25T01:39:39.867Z,102159.72
2018-02-25T01:42:08.824Z,102149.40
2018-02-25T01:44:37.204Z,102158.16
2018-02-25T01:47:05.715Z,102152.80
2018-02-25T01:49:34.104Z,102153.72
2018-02-25T01:52:02.552Z,102151.84
2018-02-25T01:54:30.955Z,102149.02
2018-02-25T01:56:59.365Z,102149.36
2018-02-25T01:59:27.748Z,102150.00
2018-02-25T02:01:56.907Z,102151.43
2018-02-25T02:04:25.299Z,102149.56
2018-02-25T02:06:53.746Z,102151.17
2018-02-25T02:09:22.112Z,102152.06
2018-02-25T02:11:50.606Z,102149.52
2018-02-25T02:14:19.013Z,102147.58
2018-02-25T02:16:47.435Z,102161.27
2018-02-25T02:19:16.595Z,102156.70
2018-02-25T02:21:44.975Z,102156.89
2018-02-25T02:24:13.375Z,102160.06
2018-02-25T02:26:41.763Z,102158.28
2018-02-25T02:29:10.945Z,102162.70
2018-02-25T02:31:39.349Z,102166.16
2018-02-25T02:34:08.526Z,102166.63
2018-02-25T02:36:36.936Z,102162.69
2018-02-25T02:39:06.098Z,102163.20
2018-02-25T02:41:34.525Z,102169.62
2018-02-25T02:44:02.900Z,102169.29
2018-02-25T02:46:31.481Z,102165.73
2018-02-25T02:49:00.672Z,102172.17
2018-02-25T02:51:29.824Z,102172.52
2018-02-25T02:53:58.196Z,102179.69
2018-02-25T02:56:26.607Z,102178.52
2018-02-25T02:58:55.763Z,102178.53
2018-02-25T03:01:24.539Z,102187.38
2018-02-25T03:03:53.000Z,102195.14
2018-02-25T03:06:22.263Z,102190.94
2018-02-25T03:08:50.673Z,102196.25
2018-02-25T03:11:19.830Z,102196.02
2018-02-25T03:13:48.389Z,102186.04
2018-02-25T03:16:17.412Z,102195.48
2018-02-25T03:18:45.921Z,102191.16
2018-02-25T03:21:14.326Z,102185.91
2018-02-25T03:23:43.655Z,102185.34
2018-02-25T03:26:12.253Z,102184.76
2018-02-25T03:28:40.717Z,102187.68
2018-02-25T03:31:09.205Z,102189.33
2018-02-25T03:33:37.566Z,102196.13
2018-02-25T03:36:05.987Z,102191.20
2018-02-25T03:38:34.382Z,102191.38
2018-02-25T03:41:03.562Z,102191.41
2018-02-25T03:43:31.948Z,102196.04
2018-02-25T03:46:00.404Z,102184.11
2018-02-25T03:48:28.853Z,102194.84
2018-02-25T03:50:58.013Z,102197.69
2018-02-25T03:53:26.406Z,102195.16
2018-02-25T03:55:54.794Z,102196.28
2018-02-25T03:58:23.199Z,102198.81
2018-02-25T04:00:51.570Z,102205.45
2018-02-25T04:03:21.347Z,102200.00
2018-02-25T04:05:49.756Z,102211.58
2018-02-25T04:08:18.903Z,102222.42
2018-02-25T04:10:47.318Z,102221.09
2018-02-25T04:13:15.711Z,102221.38
2018-02-25T04:15:44.909Z,102218.01
2018-02-25T04:18:14.190Z,102221.81
2018-02-25T04:20:42.635Z,102210.25
2018-02-25T04:23:11.019Z,102219.52
2018-02-25T04:25:39.439Z,102216.67
2018-02-25T04:28:07.847Z,102224.05
2018-02-25T04:30:37.047Z,102228.16
2018-02-25T04:33:06.188Z,102234.85
2018-02-25T04:35:34.573Z,102234.34
2018-02-25T04:38:02.991Z,102242.98
2018-02-25T04:40:31.371Z,102241.20
2018-02-25T04:42:59.762Z,102254.52
2018-02-25T04:45:28.230Z,102251.03
2018-02-25T04:47:57.379Z,102253.25
2018-02-25T04:50:25.789Z,102258.33
2018-02-25T04:52:55.048Z,102265.18
2018-02-25T04:55:23.406Z,102265.85
2018-02-25T04:57:52.611Z,102274.34
2018-02-25T05:00:21.004Z,102272.84
2018-02-25T05:02:49.419Z,102276.63
2018-02-25T05:05:17.803Z,102276.06
2018-02-25T05:07:46.347Z,102273.27
2018-02-25T05:10:14.743Z,102276.45
2018-02-25T05:12:43.124Z,102284.73
2018-02-25T05:15:11.544Z,102291.73
2018-02-25T05:17:40.724Z,102294.72
2018-02-25T05:20:09.097Z,102293.39
2018-02-25T05:22:37.527Z,102298.66
2018-02-25T05:25:06.661Z,102294.39
2018-02-25T05:27:35.219Z,102306.88
2018-02-25T05:30:04.340Z,102306.27
2018-02-25T05:32:32.827Z,102309.27
2018-02-25T05:35:01.198Z,102310.12
2018-02-25T05:37:29.624Z,102316.05
2018-02-25T05:39:58.783Z,102310.36
2018-02-25T05:42:27.172Z,102309.61
2018-02-25T05:44:55.566Z,102309.36
2018-02-25T05:47:23.951Z,102308.13
2018-02-25T05:49:52.403Z,102302.08
2018-02-25T05:52:20.805Z,102299.89
2018-02-25T05:54:49.878Z,102301.88
2018-02-25T05:57:19.204Z,102307.94
2018-02-25T05:59:47.750Z,102306.45
2018-02-25T06:02:16.908Z,102302.77
2018-02-25T06:04:46.050Z,102298.30
2018-02-25T06:07:14.430Z,102297.21
2018-02-25T06:09:42.817Z,102296.16
2018-02-25T06:12:11.186Z,102298.55
2018-02-25T06:14:39.598Z,102294.47
2018-02-25T06:17:08.162Z,102294.13
2018-02-25T06:19:36.557Z,102290.31
2018-02-25T06:22:04.948Z,102292.15
2018-02-25T06:24:33.327Z,102291.94
2018-02-25T06:27:02.510Z,102301.31
2018-02-25T06:29:30.904Z,102299.91
2018-02-25T06:31:59.275Z,102307.05
2018-02-25T06:34:27.867Z,102304.16
2018-02-25T06:36:56.439Z,102299.16
2018-02-25T06:39:25.007Z,102303.29
2018-02-25T06:41:53.431Z,102300.89
2018-02-25T06:44:22.581Z,102298.73
2018-02-25T06:46:51.028Z,102294.89
2018-02-25T06:49:20.188Z,102294.95
2018-02-25T06:51:48.590Z,102300.86
2018-02-25T06:54:17.727Z,102308.72
2018-02-25T06:56:46.145Z,102309.67
2018-02-25T06:59:14.532Z,102314.85
2018-02-25T07:01:42.913Z,102315.23
2018-02-25T07:04:11.458Z,102317.71
2018-02-25T07:06:39.880Z,102325.09
2018-02-25T07:09:08.331Z,102320.06
2018-02-25T07:11:36.733Z,102329.21
2018-02-25T07:14:05.143Z,102334.27
2018-02-25T07:16:34.330Z,102335.55
2018-02-25T07:19:02.921Z,102333.50
2018-02-25T07:21:31.306Z,102339.47
2018-02-25T07:23:59.722Z,102343.73
2018-02-25T07:26:28.879Z,102337.52
2018-02-25T07:28:57.298Z,102341.63
2018-02-25T07:31:26.439Z,102344.10
2018-02-25T07:33:54.825Z,102349.88
2018-02-25T07:36:23.223Z,102345.69
2018-02-25T07:38:51.603Z,102341.75
2018-02-25T07:41:20.099Z,102344.29
2018-02-25T07:43:49.472Z,102348.09
2018-02-25T07:46:17.858Z,102342.00
2018-02-25T07:48:46.247Z,102345.59
2018-02-25T07:51:15.410Z,102348.34
2018-02-25T07:53:43.782Z,102345.73
2018-02-25T07:56:12.178Z,102352.55
2018-02-25T07:58:40.639Z,102354.47
2018-02-25T08:01:09.115Z,102347.40
2018-02-25T08:03:37.551Z,102357.48
2018-02-25T08:06:05.931Z,102360.09
2018-02-25T08:08:34.353Z,102362.31
2018-02-25T08:11:02.792Z,102357.78
2018-02-25T08:13:31.259Z,102361.66
2018-02-25T08:15:59.671Z,102361.59
2018-02-25T08:18:28.070Z,102363.16
2018-02-25T08:20:56.467Z,102360.10
2018-02-25T08:23:25.630Z,102358.97
2018-02-25T08:25:54.691Z,102366.07
2018-02-25T08:28:23.834Z,102367.11
2018-02-25T08:30:52.234Z,102370.53
2018-02-25T08:33:20.899Z,102373.09
2018-02-25T08:35:50.203Z,102370.83
2018-02-25T08:38:19.360Z,102375.33
2018-02-25T08:40:48.593Z,102372.86
2018-02-25T08:43:17.124Z,102372.19
2018-02-25T08:45:46.279Z,102372.66
2018-02-25T08:48:14.816Z,102367.66
2018-02-25T08:50:43.992Z,102366.57
2018-02-25T08:53:12.510Z,102366.44
2018-02-25T08:55:41.676Z,102365.62
2018-02-25T08:58:10.080Z,102360.21
2018-02-25T09:00:39.736Z,102372.46
2018-02-25T09:03:08.149Z,102377.96
2018-02-25T09:05:36.558Z,102370.27
2018-02-25T09:08:06.241Z,102374.72
2018-02-25T09:10:35.490Z,102368.92
2018-02-25T09:13:03.938Z,102370.45
2018-02-25T09:15:33.107Z,102370.80
2018-02-25T09:18:01.549Z,102374.52
2018-02-25T09:20:29.938Z,102375.73
2018-02-25T09:22:58.327Z,102364.41
2018-02-25T09:25:26.721Z,102364.58
2018-02-25T09:27:55.130Z,102368.41
2018-02-25T09:30:24.352Z,102370.29
2018-02-25T09:32:53.025Z,102356.44
2018-02-25T09:35:21.427Z,102352.06
2018-02-25T09:37:49.802Z,102354.68
2018-02-25T09:40:18.372Z,102364.35
2018-02-25T09:42:46.777Z,102359.78
2018-02-25T09:45:15.161Z,102354.42
2018-02-25T09:47:43.579Z,102345.59
2018-02-25T09:50:12.731Z,102345.41
2018-02-25T09:52:41.127Z,102343.34
2018-02-25T09:55:09.653Z,102339.49
2018-02-25T09:57:38.028Z,102339.17
2018-02-25T10:00:06.413Z,102333.38
2018-02-25T10:02:34.843Z,102329.80
2018-02-25T10:05:03.235Z,102324.89
2018-02-25T10:07:31.595Z,102326.53
2018-02-25T10:10:00.003Z,102327.91
2018-02-25T10:12:29.160Z,102319.88
2018-02-25T10:14:57.664Z,102315.27
2018-02-25T10:17:26.051Z,102322.38
2018-02-25T10:19:54.684Z,102316.75
2018-02-25T10:22:23.082Z,102315.54
2018-02-25T10:24:52.711Z,102312.69
2018-02-25T10:27:21.289Z,102305.47
2018-02-25T10:29:50.486Z,102308.30
2018-02-25T10:32:18.955Z,102304.67
2018-02-25T10:34:47.396Z,102294.59
2018-02-25T10:37:17.856Z,102296.66
2018-02-25T10:39:46.287Z,102291.56
2018-02-25T10:42:14.724Z,102291.63
2018-02-25T10:44:43.122Z,102292.56
2018-02-25T10:47:11.498Z,102290.36
2018-02-25T10:49:40.015Z,102289.12
2018-02-25T10:52:12.307Z,102286.81
2018-02-25T10:54:42.332Z,102287.18
2018-02-25T10:57:21.896Z,102288.03
2018-02-25T11:00:00.678Z,102288.22
2018-02-25T11:02:33.480Z,102281.27
2018-02-25T11:05:02.465Z,102280.70
2018-02-25T11:07:33.645Z,102280.07
2018-02-25T11:10:02.231Z,102276.31
2018-02-25T11:12:30.698Z,102279.25
2018-02-25T11:14:59.075Z,102273.03
2018-02-25T11:17:27.908Z,102263.09
2018-02-25T11:19:57.652Z,102260.69
2018-02-25T11:22:26.053Z,102260.19
2018-02-25T11:24:54.471Z,102258.22
2018-02-25T11:27:22.853Z,102256.01
2018-02-25T11:29:51.289Z,102253.86
2018-02-25T11:32:19.654Z,102250.03
2018-02-25T11:34:48.042Z,102242.03
2018-02-25T11:37:17.202Z,102241.31
2018-02-25T11:39:45.591Z,102241.55
2018-02-25T11:42:14.068Z,102235.23
2018-02-25T11:44:42.643Z,102233.78
2018-02-25T11:47:11.006Z,102234.05
2018-02-25T11:49:39.398Z,102223.41
2018-02-25T11:52:07.777Z,102217.56
2018-02-25T11:54:36.227Z,102221.23
2018-02-25T11:57:05.415Z,102211.91
2018-02-25T11:59:33.812Z,102206.11
2018-02-25T12:02:03.134Z,102204.77
2018-02-25T12:04:31.601Z,102203.84
2018-02-25T12:07:00.871Z,102198.58
2018-02-25T12:09:29.247Z,102191.97
2018-02-25T12:11:57.667Z,102194.25
2018-02-25T12:14:26.098Z,102188.63
2018-02-25T12:16:54.500Z,102188.98
2018-02-25T12:19:22.897Z,102189.70
2018-02-25T12:21:51.338Z,102181.02
2018-02-25T12:24:20.700Z,102175.77
2018-02-25T12:26:49.125Z,102171.93
2018-02-25T12:29:18.352Z,102163.55
2018-02-25T12:31:46.852Z,102161.60
2018-02-25T12:34:15.259Z,102163.79
2018-02-25T12:36:43.726Z,102161.73
2018-02-25T12:39:12.733Z,102161.29
2018-02-25T12:41:41.118Z,102159.27
2018-02-25T12:44:09.532Z,102152.28
2018-02-25T12:46:37.942Z,102147.30
2018-02-25T12:49:06.361Z,102150.80
2018-02-25T12:51:34.797Z,102143.00
2018-02-25T12:54:03.267Z,102140.02
2018-02-25T12:56:31.648Z,102136.70
2018-02-25T12:59:00.043Z,102127.04
2018-02-25T13:01:28.491Z,102139.45
2018-02-25T13:03:57.632Z,102139.45
2018-02-25T13:06:26.042Z,102134.89
2018-02-25T13:08:54.407Z,102130.42
2018-02-25T13:11:22.955Z,102130.70
2018-02-25T13:13:51.346Z,102126.34
2018-02-25T13:16:19.729Z,102122.55
2018-02-25T13:18:48.156Z,102118.56
2018-02-25T13:21:16.620Z,102114.53
2018-02-25T13:23:45.058Z,102114.01
2018-02-25T13:26:14.258Z,102107.73
2018-02-25T13:28:43.430Z,102113.33
2018-02-25T13:31:11.832Z,102098.94
2018-02-25T13:33:40.994Z,102099.39
2018-02-25T13:36:09.406Z,102096.07
2018-02-25T13:38:38.581Z,102091.13
2018-02-25T13:41:06.985Z,102088.27
2018-02-25T13:43:36.138Z,102090.39
2018-02-25T13:46:04.544Z,102083.45
2018-02-25T13:48:32.944Z,102082.59
2018-02-25T13:51:02.116Z,102090.16
2018-02-25T13:53:30.517Z,102087.66
2018-02-25T13:55:59.197Z,102088.64
2018-02-25T13:58:27.587Z,102079.77
2018-02-25T14:00:55.986Z,102086.22
2018-02-25T14:03:24.549Z,102081.94
2018-02-25T14:05:53.026Z,102078.91
2018-02-25T14:08:21.467Z,102076.39
2018-02-25T14:10:50.603Z,102073.50
2018-02-25T14:13:19.010Z,102075.09
2018-02-25T14:15:47.421Z,102067.23
2018-02-25T14:18:15.822Z,102064.42
2018-02-25T14:20:44.231Z,102066.34
2018-02-25T14:23:12.643Z,102065.09
2018-02-25T14:25:41.104Z,102066.97
2018-02-25T14:28:09.481Z,102063.18
2018-02-25T14:30:37.863Z,102061.94
2018-02-25T14:33:06.340Z,102066.81
2018-02-25T14:35:34.951Z,102065.57
2018-02-25T14:38:04.119Z,102062.39
2018-02-25T14:40:32.545Z,102055.84
2018-02-25T14:43:01.739Z,102054.67
2018-02-25T14:45:31.828Z,102050.63
2018-02-25T14:48:00.452Z,102036.66
2018-02-25T14:50:29.624Z,102045.47
2018-02-25T14:52:58.023Z,102043.06
2018-02-25T14:55:26.419Z,102048.98
2018-02-25T14:57:55.560Z,102045.19
2018-02-25T15:00:24.154Z,102032.80
2018-02-25T15:02:52.629Z,102036.86
2018-02-25T15:05:22.661Z,102027.73
2018-02-25T15:07:51.081Z,102036.21
2018-02-25T15:10:20.299Z,102035.25
2018-02-25T15:12:49.477Z,102040.86
2018-02-25T15:15:17.886Z,102039.18
2018-02-25T15:17:47.229Z,102041.30
2018-02-25T15:20:15.731Z,102039.81
2018-02-25T15:22:44.533Z,102043.08
2018-02-25T15:25:12.967Z,102033.67
2018-02-25T15:27:41.461Z,102034.94
2018-02-25T15:30:09.890Z,102032.63
2018-02-25T15:32:39.191Z,102027.11
2018-02-25T15:35:08.359Z,102032.20
2018-02-25T15:37:36.941Z,102032.97
2018-02-25T15:40:05.315Z,102034.18
2018-02-25T15:42:33.787Z,102032.47
2018-02-25T15:45:02.376Z,102036.15
2018-02-25T15:47:30.788Z,102040.75
2018-02-25T15:49:59.173Z,102040.97
2018-02-25T15:52:29.682Z,102043.97
2018-02-25T15:54:58.456Z,102049.85
2018-02-25T15:57:26.859Z,102046.06
2018-02-25T15:59:55.284Z,102057.37
2018-02-25T16:02:23.743Z,102061.86
2018-02-25T16:04:52.878Z,102064.30
2018-02-25T16:07:21.299Z,102063.19
2018-02-25T16:09:49.817Z,102061.23
2018-02-25T16:12:18.208Z,102068.05
2018-02-25T16:14:46.900Z,102070.89
2018-02-25T16:17:15.320Z,102067.96
2018-02-25T16:19:43.840Z,102070.56
2018-02-25T16:22:13.040Z,102066.05
2018-02-25T16:24:42.210Z,102081.59
2018-02-25T16:27:10.643Z,102065.09
2018-02-25T16:29:39.053Z,102073.69
2018-02-25T16:32:07.463Z,102068.33
2018-02-25T16:34:35.848Z,102081.49
2018-02-25T16:37:05.314Z,102080.80
2018-02-25T16:39:33.703Z,102079.98
2018-02-25T16:42:02.135Z,102071.74
2018-02-25T16:44:40.488Z,102086.08
2018-02-25T16:47:09.061Z,102084.19
2018-02-25T16:49:37.455Z,102094.16
2018-02-25T16:52:05.867Z,102097.81
2018-02-25T16:54:35.541Z,102092.00
2018-02-25T16:57:04.070Z,102100.33
2018-02-25T16:59:33.374Z,102102.33
2018-02-25T17:02:02.632Z,102106.40
2018-02-25T17:04:31.059Z,102101.37
2018-02-25T17:06:59.749Z,102110.41
2018-02-25T17:09:28.333Z,102106.14
2018-02-25T17:11:57.486Z,102110.66
2018-02-25T17:14:26.695Z,102116.36
2018-02-25T17:16:55.101Z,102119.27
2018-02-25T17:19:23.562Z,102119.78
2018-02-25T17:21:51.983Z,102114.89
2018-02-25T17:24:23.281Z,102118.17
2018-02-25T17:26:51.988Z,102113.55
2018-02-25T17:29:25.428Z,102129.59
2018-02-25T17:31:54.072Z,102120.41
2018-02-25T17:34:22.722Z,102132.38
2018-02-25T17:36:53.190Z,102135.55
2018-02-25T17:39:21.621Z,102139.22
2018-02-25T17:41:50.209Z,102139.94
2018-02-25T17:44:19.410Z,102142.92
2018-02-25T17:46:47.824Z,102149.18
2018-02-25T17:49:17.215Z,102145.41
2018-02-25T17:51:46.591Z,102148.85
2018-02-25T17:54:15.070Z,102150.19
2018-02-25T17:56:44.555Z,102146.02
2018-02-25T17:59:13.001Z,102149.59
2018-02-25T18:01:41.461Z,102153.89
2018-02-25T18:04:09.936Z,102150.50
2018-02-25T18:06:39.224Z,102149.52
2018-02-25T18:09:07.676Z,102157.81
2018-02-25T18:11:36.109Z,102159.19
2018-02-25T18:14:04.642Z,102153.61
2018-02-25T18:16:36.347Z,102149.95
2018-02-25T18:19:04.793Z,102150.59
2018-02-25T18:21:33.293Z,102153.41
2018-02-25T18:24:01.725Z,102149.12
2018-02-25T18:26:30.182Z,102153.54
2018-02-25T18:28:58.660Z,102155.17
2018-02-25T18:31:28.147Z,102157.81
2018-02-25T18:33:56.647Z,102164.88
2018-02-25T18:36:25.179Z,102158.70
2018-02-25T18:38:54.446Z,102160.21
2018-02-25T18:41:22.953Z,102158.05
2018-02-25T18:43:51.415Z,102160.81
2018-02-25T18:46:24.659Z,102156.08
2018-02-25T18:48:53.255Z,102163.99
2018-02-25T18:51:21.682Z,102160.75
2018-02-25T18:53:50.900Z,102162.70
2018-02-25T18:56:20.109Z,102172.85
2018-02-25T18:58:48.832Z,102167.31
2018-02-25T19:01:17.287Z,102163.55
2018-02-25T19:03:45.736Z,102156.60
2018-02-25T19:06:14.981Z,102169.58
2018-02-25T19:08:43.416Z,102172.61
2018-02-25T19:11:12.625Z,102163.86
2018-02-25T19:13:41.816Z,102172.45
2018-02-25T19:16:10.332Z,102163.91
2018-02-25T19:18:38.726Z,102175.69
2018-02-25T19:21:07.136Z,102175.19
2018-02-25T19:23:35.570Z,102177.80
2018-02-25T19:26:03.980Z,102178.07
2018-02-25T19:28:32.435Z,102181.95
2018-02-25T19:31:01.104Z,102182.52
2018-02-25T19:33:29.680Z,102176.59
2018-02-25T19:36:03.896Z,102182.81
2018-02-25T19:41:41.068Z,102184.98
2018-02-25T19:44:09.684Z,102189.31
2018-02-25T19:46:39.032Z,102192.19
2018-02-25T19:49:07.598Z,102188.04
2018-02-25T19:51:36.019Z,102188.42
2018-02-25T19:54:04.495Z,102194.68
2018-02-25T19:56:33.168Z,102204.73
2018-02-25T19:59:01.664Z,102197.73
2018-02-25T20:01:30.145Z,102205.89
2018-02-25T20:03:59.476Z,102214.03
2018-02-25T20:06:28.687Z,102212.06
2018-02-25T20:08:58.040Z,102214.84
2018-02-25T20:11:26.657Z,102224.70
2018-02-25T20:13:55.868Z,102227.19
2018-02-25T20:16:25.044Z,102230.69
2018-02-25T20:18:54.528Z,102224.64
2018-02-25T20:21:23.612Z,102220.94
2018-02-25T20:23:52.019Z,102226.69
2018-02-25T20:26:20.443Z,102229.23
2018-02-25T20:28:48.850Z,102229.63
2018-02-25T20:31:17.266Z,102233.55
2018-02-25T20:33:46.564Z,102234.98
2018-02-25T20:36:14.993Z,102231.32
2018-02-25T20:38:43.417Z,102235.42
2018-02-25T20:41:11.881Z,102234.92
2018-02-25T20:43:41.153Z,102234.03
2018-02-25T20:46:11.135Z,102234.30
2018-02-25T20:48:49.465Z,102240.25
2018-02-25T20:51:17.961Z,102251.17
2018-02-25T20:53:46.476Z,102243.92
2018-02-25T20:56:15.712Z,102238.59
2018-02-25T20:58:44.126Z,102240.20
2018-02-25T21:01:12.537Z,102242.78
2018-02-25T21:03:41.232Z,102241.24
2018-02-25T21:06:09.657Z,102238.78
2018-02-25T21:08:38.059Z,102239.00
2018-02-25T21:11:06.969Z,102245.37
2018-02-25T21:13:35.400Z,102248.86
2018-02-25T21:16:04.620Z,102249.67
2018-02-25T21:18:33.068Z,102251.55
2018-02-25T21:21:02.237Z,102254.31
2018-02-25T21:23:30.748Z,102244.34
2018-02-25T21:25:59.903Z,102252.11
2018-02-25T21:28:28.295Z,102254.78
2018-02-25T21:30:56.726Z,102242.89
2018-02-25T21:33:25.123Z,102270.11
2018-02-25T21:35:54.226Z,102253.28
2018-02-25T21:38:22.661Z,102262.70
2018-02-25T21:40:51.828Z,102270.23
2018-02-25T21:43:20.232Z,102265.65
2018-02-25T21:45:49.455Z,102269.84
2018-02-25T21:48:17.829Z,102270.61
2018-02-25T21:50:46.212Z,102272.11
2018-02-25T21:53:14.622Z,102262.59
2018-02-25T21:55:48.359Z,102275.34
2018-02-25T21:58:22.094Z,102272.62
2018-02-25T22:00:56.865Z,102276.51
2018-02-25T22:03:30.168Z,102274.66
2018-02-25T22:05:59.280Z,102270.77
2018-02-25T22:08:27.728Z,102268.92
2018-02-25T22:10:56.127Z,102278.98
2018-02-25T22:13:24.519Z,102280.03
2018-02-25T22:15:52.961Z,102279.06
2018-02-25T22:18:21.441Z,102281.09
2018-02-25T22:20:49.968Z,102279.62
2018-02-25T22:23:19.299Z,102277.17
2018-02-25T22:25:48.488Z,102284.56
2018-02-25T22:28:17.783Z,102285.90
2018-02-25T22:30:46.995Z,102279.03
2018-02-25T22:33:16.160Z,102284.50
2018-02-25T22:35:44.553Z,102281.55
2018-02-25T22:38:12.995Z,102282.36
2018-02-25T22:40:41.364Z,102283.69
2018-02-25T22:43:09.834Z,102291.18
2018-02-25T22:45:38.973Z,102289.55
2018-02-25T22:48:07.365Z,102291.09
2018-02-25T22:50:35.804Z,102289.33
2018-02-25T22:53:04.232Z,102287.91
2018-02-25T22:55:33.392Z,102296.97
2018-02-25T22:58:01.805Z,102296.97
2018-02-25T23:00:30.203Z,102298.92
2018-02-25T23:02:58.618Z,102303.02
2018-02-25T23:05:27.011Z,102307.30
2018-02-25T23:07:55.508Z,102306.31
2018-02-25T23:10:23.943Z,102308.86
2018-02-25T23:12:52.376Z,102312.75
2018-02-25T23:15:20.865Z,102317.52
2018-02-25T23:17:49.436Z,102316.02
2018-02-25T23:20:17.829Z,102318.56
2018-02-25T23:22:46.228Z,102321.11
2018-02-25T23:25:16.011Z,102321.55
2018-02-25T23:27:44.419Z,102321.34
2018-02-25T23:30:12.930Z,102327.00
2018-02-25T23:32:42.071Z,102323.02
2018-02-25T23:35:11.361Z,102319.84
2018-02-25T23:37:40.606Z,102329.68
2018-02-25T23:40:08.986Z,102328.37
2018-02-25T23:42:37.856Z,102329.75
2018-02-25T23:45:06.262Z,102327.55
2018-02-25T23:47:34.752Z,102327.21
2018-02-25T23:50:03.326Z,102327.41
2018-02-25T23:52:31.752Z,102329.47
2018-02-25T23:55:00.147Z,102321.77
2018-02-25T23:57:28.636Z,102324.45
2018-02-25T23:59:57.110Z,102327.92
